Time;durP1;ratioP1;P1;durP2;ratioP2;P2;SDS_P1;SDS_P2;PMS_P1;PMS_P2;Temp;Humidity;BMP_temperature;BMP_pressure;BME280_temperature;BME280_humidity;BME280_pressure;Samples;Min_cycle;Max_cycle;Signal;HPM_P1;HPM_P2
2021/04/18 00:00:33;;;;;;;68.22;36.10;;;;;;;8.60;81.45;101101.70;4817184;60;1140849;-77
2021/04/18 00:05:59;;;;;;;62.93;36.77;;;;;;;8.60;81.45;101101.70;4816298;60;1140678;-75
2021/04/18 00:11:23;;;;;;;67.33;35.00;;;;;;;8.69;81.54;101093.26;4832554;59;1140876;-74
2021/04/18 00:16:48;;;;;;;64.37;35.45;;;;;;;8.75;81.50;101090.70;4894841;59;1140562;-75
2021/04/18 00:22:13;;;;;;;67.13;39.00;;;;;;;8.80;81.86;101094.77;4863717;59;1140843;-74
2021/04/18 00:27:40;;;;;;;59.87;33.27;;;;;;;8.83;81.86;101089.78;4937763;58;1140750;-75
2021/04/18 00:33:04;;;;;;;60.53;30.80;;;;;;;8.80;81.15;101089.95;4910293;58;1140377;-75
2021/04/18 00:38:30;;;;;;;61.80;33.40;;;;;;;8.85;81.41;101092.33;4860296;59;1140691;-74
2021/04/18 00:43:56;;;;;;;56.93;33.00;;;;;;;8.77;80.96;101084.39;4860184;59;1140666;-74
2021/04/18 00:49:22;;;;;;;64.53;34.80;;;;;;;8.63;80.88;101073.84;4859959;58;1140987;-75
2021/04/18 00:54:46;;;;;;;62.43;33.97;;;;;;;8.53;81.11;101064.80;4860010;58;1140423;-75
2021/04/18 01:00:12;;;;;;;60.17;33.23;;;;;;;8.52;81.37;101065.73;4859913;59;1140603;-74
2021/04/18 01:05:37;;;;;;;72.75;37.38;;;;;;;8.60;81.56;101071.85;4860243;58;1140638;-75
2021/04/18 01:11:04;;;;;;;73.20;37.77;;;;;;;8.59;81.75;101069.69;4860142;58;1140557;-73
2021/04/18 01:16:29;;;;;;;58.48;33.85;;;;;;;8.55;81.75;101055.48;4860207;59;1140853;-75
2021/04/18 01:21:54;;;;;;;54.67;31.60;;;;;;;8.58;81.91;101059.23;4852961;59;1140695;-74
2021/04/18 01:27:23;;;;;;;53.17;30.03;;;;;;;8.64;81.92;101066.31;4819578;59;1140822;-75
2021/04/18 01:32:52;;;;;;;50.63;30.17;;;;;;;8.71;82.08;101062.81;4819097;60;1140666;-75
2021/04/18 01:38:19;;;;;;;55.37;29.43;;;;;;;8.65;81.82;101064.52;4819337;59;1140597;-74
2021/04/18 01:43:44;;;;;;;44.47;25.93;;;;;;;8.64;82.28;101066.31;4819195;59;1140483;-77
2021/04/18 01:49:10;;;;;;;59.50;33.33;;;;;;;8.63;81.87;101065.93;4819438;59;1140847;-77
2021/04/18 01:54:35;;;;;;;55.10;28.73;;;;;;;8.59;81.78;101062.25;4819210;59;1140807;-77
2021/04/18 02:00:01;;;;;;;55.10;30.93;;;;;;;8.54;81.91;101057.74;4819839;59;1140588;-76
2021/04/18 02:05:37;;;;;;;52.58;31.97;;;;;;;8.55;82.60;101056.34;4819804;59;1140733;-76
2021/04/18 02:11:03;;;;;;;50.27;29.93;;;;;;;8.67;82.92;101052.09;4836349;60;1140732;-76
2021/04/18 02:16:29;;;;;;;51.63;29.85;;;;;;;8.63;82.48;101051.43;4797478;59;1140494;-75
2021/04/18 02:21:56;;;;;;;50.93;29.17;;;;;;;8.61;82.50;101054.63;4817729;60;1140505;-78
2021/04/18 02:27:25;;;;;;;55.57;30.53;;;;;;;8.63;82.41;101054.53;4857022;60;1140470;-78
2021/04/18 02:32:53;;;;;;;61.67;28.90;;;;;;;8.68;82.60;101049.84;4855821;58;1140584;-78
2021/04/18 02:38:19;;;;;;;57.90;30.27;;;;;;;8.74;82.66;101050.77;4857809;58;1140481;-77
2021/04/18 02:43:44;;;;;;;58.00;32.57;;;;;;;8.72;82.82;101047.37;4858589;58;1140423;-76
2021/04/18 02:49:10;;;;;;;47.63;26.07;;;;;;;8.71;83.01;101038.61;4857956;59;1140627;-77
2021/04/18 02:54:35;;;;;;;40.60;25.10;;;;;;;8.72;82.68;101027.12;4858110;59;1140694;-78
2021/04/18 03:00:01;;;;;;;43.23;23.83;;;;;;;8.67;82.50;101029.69;4858045;58;1140775;-76
2021/04/18 03:05:27;;;;;;;42.70;24.55;;;;;;;8.74;82.93;101033.63;4791567;59;1140831;-75
2021/04/18 03:10:54;;;;;;;43.33;25.03;;;;;;;8.73;82.83;101028.81;4857073;58;1140739;-74
2021/04/18 03:16:20;;;;;;;37.63;21.20;;;;;;;8.63;82.65;101018.47;4857985;59;1140880;-76
2021/04/18 03:21:46;;;;;;;33.00;18.82;;;;;;;8.62;82.90;101019.41;4796030;60;1140644;-76
2021/04/18 03:27:13;;;;;;;30.77;18.20;;;;;;;8.60;82.68;101020.44;4821661;59;1140739;-75
2021/04/18 03:32:39;;;;;;;31.55;17.90;;;;;;;8.61;83.07;101015.08;4815629;60;1140911;-76
2021/04/18 03:38:05;;;;;;;34.73;20.00;;;;;;;8.69;83.63;101022.53;4817207;59;1140711;-76
2021/04/18 03:43:31;;;;;;;32.30;16.67;;;;;;;8.69;83.56;101037.88;4817277;59;1140710;-75
2021/04/18 03:48:56;;;;;;;25.20;14.10;;;;;;;8.66;83.29;101040.70;4816937;60;1140589;-76
2021/04/18 03:54:22;;;;;;;27.33;16.47;;;;;;;8.64;83.38;101037.78;4816977;59;1140520;-75
2021/04/18 03:59:48;;;;;;;31.03;17.40;;;;;;;8.62;83.47;101035.70;4817068;60;1140640;-76
2021/04/18 04:05:14;;;;;;;29.90;18.73;;;;;;;8.60;83.66;101035.79;4817023;60;1140569;-75
2021/04/18 04:10:40;;;;;;;32.25;18.30;;;;;;;8.59;83.92;101039.83;4817310;59;1140769;-76
2021/04/18 04:16:06;;;;;;;27.20;18.10;;;;;;;8.55;84.04;101035.25;4816828;59;1141104;-74
2021/04/18 04:21:34;;;;;;;32.23;19.60;;;;;;;8.53;84.06;101041.08;4816942;60;1140912;-75
2021/04/18 04:27:06;;;;;;;31.87;18.63;;;;;;;8.58;84.36;101036.35;4804895;60;1140644;-76
2021/04/18 04:32:32;;;;;;;37.28;21.55;;;;;;;8.64;84.33;101048.33;4855463;59;1140615;-75
2021/04/18 04:37:57;;;;;;;33.07;20.97;;;;;;;8.65;84.54;101042.11;4935117;58;1140621;-76
2021/04/18 04:43:22;;;;;;;38.23;22.77;;;;;;;8.65;84.75;101046.91;4861151;59;1141061;-75
2021/04/18 04:48:47;;;;;;;37.20;23.53;;;;;;;8.72;84.90;101044.26;4935092;58;1140824;-73
2021/04/18 04:54:12;;;;;;;34.67;22.33;;;;;;;8.81;85.06;101041.55;4901229;58;1140844;-73
2021/04/18 04:59:38;;;;;;;45.70;24.45;;;;;;;8.90;85.07;101055.94;4906053;58;1140645;-73
2021/04/18 05:05:05;;;;;;;33.70;21.50;;;;;;;8.91;85.30;101058.48;4850667;59;1140623;-74
2021/04/18 05:10:30;;;;;;;41.58;24.30;;;;;;;8.94;85.41;101049.07;4884154;59;1140605;-73
2021/04/18 05:15:56;;;;;;;42.37;24.17;;;;;;;8.97;85.20;101058.59;4856971;58;1140529;-74
2021/04/18 05:21:20;;;;;;;40.23;23.70;;;;;;;8.93;85.14;101055.28;4928745;58;1140647;-73
2021/04/18 05:26:46;;;;;;;45.87;24.80;;;;;;;8.93;85.25;101069.80;4928453;58;1140643;-73
2021/04/18 05:32:10;;;;;;;41.67;21.87;;;;;;;8.92;85.35;101067.25;4923818;58;1140854;-74
2021/04/18 05:37:35;;;;;;;48.40;26.02;;;;;;;8.89;85.68;101072.23;4935774;58;1140726;-73
2021/04/18 05:42:59;;;;;;;50.03;26.23;;;;;;;8.91;85.67;101070.36;4930006;58;1140810;-73
2021/04/18 05:48:25;;;;;;;59.05;29.82;;;;;;;8.94;85.64;101068.85;4906525;58;1140704;-73
2021/04/18 05:53:50;;;;;;;62.03;34.17;;;;;;;8.92;85.77;101061.50;5035404;57;1140543;-73
2021/04/18 05:59:16;;;;;;;58.30;31.95;;;;;;;9.04;86.00;101067.80;5025164;57;1140839;-73
2021/04/18 06:04:40;;;;;;;52.35;28.40;;;;;;;9.05;85.71;101064.22;5038644;57;1140539;-73
2021/04/18 06:10:07;;;;;;;54.97;30.37;;;;;;;9.07;85.79;101068.46;5027812;57;1140600;-73
2021/04/18 06:15:33;;;;;;;59.30;27.95;;;;;;;9.07;85.85;101078.17;5040530;57;1140837;-73
2021/04/18 06:20:58;;;;;;;57.60;29.73;;;;;;;9.08;86.01;101077.23;5048808;57;1140601;-73
2021/04/18 06:26:23;;;;;;;33.93;18.80;;;;;;;9.07;85.88;101077.70;5050773;57;1140776;-76
2021/04/18 06:31:48;;;;;;;46.03;23.40;;;;;;;9.07;85.70;101076.38;5048696;57;1140753;-73
2021/04/18 06:37:14;;;;;;;51.57;27.73;;;;;;;9.09;85.71;101071.86;5048463;57;1140592;-72
2021/04/18 06:42:40;;;;;;;50.12;26.95;;;;;;;9.22;85.94;101075.03;5049295;57;1140724;-73
2021/04/18 06:48:05;;;;;;;51.07;23.77;;;;;;;9.32;85.91;101073.03;5050593;57;1140554;-73
2021/04/18 06:53:31;;;;;;;48.68;25.75;;;;;;;9.48;85.64;101075.07;5048784;57;1140519;-73
2021/04/18 06:59:00;;;;;;;47.70;24.53;;;;;;;9.57;84.68;101077.61;5048541;57;1140340;-73
2021/04/18 07:04:27;;;;;;;55.86;27.56;;;;;;;9.63;84.23;101082.95;5067120;57;1140889;-75
2021/04/18 07:09:52;;;;;;;57.73;25.57;;;;;;;9.67;84.33;101085.77;5041020;56;1140456;-73
2021/04/18 07:15:21;;;;;;;42.83;22.73;;;;;;;9.74;84.53;101093.22;5050536;57;1140409;-74
2021/04/18 07:20:54;;;;;;;40.07;21.33;;;;;;;9.80;83.39;101094.12;5049053;57;1142168;-75
2021/04/18 07:26:28;;;;;;;44.07;23.33;;;;;;;9.87;84.13;101094.11;5047156;57;1140730;-74
2021/04/18 07:31:53;;;;;;;35.43;19.75;;;;;;;10.13;84.74;101095.02;4949634;58;1140878;-75
2021/04/18 07:37:22;;;;;;;34.00;20.60;;;;;;;10.45;84.35;101094.21;4968759;58;1142700;-74
2021/04/18 07:42:47;;;;;;;31.97;17.97;;;;;;;10.60;83.38;101100.73;4968676;58;1142875;-75
2021/04/18 07:48:14;;;;;;;25.90;16.67;;;;;;;10.74;82.99;101101.47;4968636;58;1142621;-74
2021/04/18 07:53:41;;;;;;;27.93;16.30;;;;;;;10.82;81.80;101094.34;4968829;58;1142758;-74
2021/04/18 07:59:08;;;;;;;23.33;14.70;;;;;;;10.91;81.81;101092.37;4968880;58;1142735;-75
2021/04/18 08:04:34;;;;;;;13.62;9.48;;;;;;;11.03;80.63;101098.59;4968934;58;1142729;-75
2021/04/18 08:10:24;;;;;;;18.77;13.10;;;;;;;11.08;80.48;101097.80;5007357;57;1140863;-75
2021/04/18 08:16:08;;;;;;;19.70;13.67;;;;;;;11.15;79.70;101101.22;5053829;57;1142567;-76
2021/04/18 08:21:37;;;;;;;21.43;15.03;;;;;;;11.38;80.16;101101.40;5050817;56;1143122;-76
2021/04/18 08:27:11;;;;;;;26.87;14.23;;;;;;;11.64;79.43;101108.30;5061833;57;1143201;-78
2021/04/18 08:32:48;;;;;;;14.60;10.35;;;;;;;11.85;78.45;101096.66;5061219;57;1142732;-77
2021/04/18 08:38:19;;;;;;;17.20;13.13;;;;;;;12.09;78.28;101091.33;5045446;57;1142784;-77
2021/04/18 08:43:47;;;;;;;22.27;15.23;;;;;;;12.27;75.68;101092.60;5040814;57;1142984;-77
2021/04/18 08:49:13;;;;;;;22.40;15.67;;;;;;;12.24;75.90;101092.83;5039474;57;1142786;-76
2021/04/18 08:54:45;;;;;;;21.52;14.55;;;;;;;12.39;76.72;101094.80;4858562;59;1142934;-76
2021/04/18 09:00:15;;;;;;;23.13;14.43;;;;;;;12.46;76.29;101096.04;5040157;57;1142912;-77
2021/04/18 09:05:41;;;;;;;17.10;12.85;;;;;;;12.61;75.13;101101.50;5038986;57;1142463;-77
2021/04/18 09:11:07;;;;;;;22.13;16.63;;;;;;;12.67;73.90;101101.89;5040345;57;1142689;-77
2021/04/18 09:16:36;;;;;;;20.97;14.03;;;;;;;12.67;73.67;101101.89;5038925;57;1143008;-78
2021/04/18 09:22:10;;;;;;;19.80;14.10;;;;;;;12.81;74.57;101106.61;5044478;57;1142911;-76
2021/04/18 09:27:38;;;;;;;16.17;10.35;;;;;;;13.03;73.87;101101.30;5053215;57;1142831;-77
2021/04/18 09:33:04;;;;;;;20.90;13.37;;;;;;;13.22;73.41;101114.01;5054386;56;1142944;-78
2021/04/18 09:38:31;;;;;;;17.27;12.45;;;;;;;13.20;70.13;101117.27;4962023;57;1152386;-77
2021/04/18 09:44:00;;;;;;;20.83;13.50;;;;;;;12.99;71.44;101113.96;4985369;58;1142741;-77
2021/04/18 09:49:26;;;;;;;22.83;15.40;;;;;;;12.83;70.94;101111.32;4997665;58;1143158;-75
2021/04/18 09:54:52;;;;;;;14.70;9.60;;;;;;;12.87;72.71;101108.28;4985606;57;1142855;-75
2021/04/18 10:00:33;;;;;;;19.83;14.20;;;;;;;12.93;71.87;101113.12;4998027;58;1140839;-77
2021/04/18 10:06:01;;;;;;;20.23;13.93;;;;;;;12.87;71.42;101111.42;4966120;58;1142710;-76
2021/04/18 10:11:25;;;;;;;19.40;13.97;;;;;;;12.96;71.87;101106.74;4987316;57;1142753;-75
2021/04/18 10:16:50;;;;;;;18.10;13.43;;;;;;;12.95;71.51;101112.53;4988866;58;1142566;-76
2021/04/18 10:22:17;;;;;;;21.37;14.23;;;;;;;12.84;68.96;101115.16;4989606;58;1142948;-77
2021/04/18 10:27:42;;;;;;;22.40;12.95;;;;;;;12.79;71.45;101108.05;4963632;58;1142733;-77
2021/04/18 10:33:08;;;;;;;19.20;13.53;;;;;;;12.89;71.64;101107.69;5001083;58;1142651;-75
2021/04/18 10:38:33;;;;;;;22.70;15.23;;;;;;;13.22;71.11;101106.89;5009350;58;1142845;-75
2021/04/18 10:43:58;;;;;;;16.63;11.73;;;;;;;13.28;70.16;101110.88;5018791;58;1142717;-75
2021/04/18 10:49:25;;;;;;;16.70;12.60;;;;;;;13.25;70.17;101115.10;5005491;57;1142733;-75
2021/04/18 10:54:50;;;;;;;16.37;12.17;;;;;;;13.21;69.50;101112.31;5022720;57;1142936;-75
2021/04/18 11:00:15;;;;;;;19.30;13.10;;;;;;;13.42;70.01;101107.13;5016450;57;1142822;-76
2021/04/18 11:05:40;;;;;;;18.00;12.03;;;;;;;13.66;68.20;101109.96;5025170;57;1142832;-76
2021/04/18 11:11:05;;;;;;;26.90;17.17;;;;;;;13.81;66.28;101104.36;5023252;57;1143116;-75
2021/04/18 11:16:32;;;;;;;29.95;19.95;;;;;;;13.96;66.72;101103.11;5041622;57;1142793;-76
2021/04/18 11:21:57;;;;;;;31.63;21.50;;;;;;;14.16;66.02;101100.13;4996605;57;1142650;-75
2021/04/18 11:27:23;;;;;;;20.70;14.23;;;;;;;14.42;66.36;101101.48;5037902;57;1142710;-76
2021/04/18 11:32:48;;;;;;;16.73;11.78;;;;;;;14.58;63.51;101095.70;5021720;57;1143102;-76
2021/04/18 11:38:14;;;;;;;24.03;15.77;;;;;;;14.65;63.44;101099.05;5026182;57;1142658;-77
2021/04/18 11:43:38;;;;;;;17.85;12.50;;;;;;;14.83;64.42;101096.60;4993330;57;1142801;-78
2021/04/18 11:49:03;;;;;;;11.50;9.27;;;;;;;14.89;62.05;101091.25;4987921;58;1142772;-77
2021/04/18 11:54:28;;;;;;;12.47;9.00;;;;;;;14.87;61.46;101099.85;5015784;58;1140602;-76
2021/04/18 11:59:54;;;;;;;11.40;8.87;;;;;;;14.99;60.90;101096.97;4998590;58;1140473;-76
2021/04/18 12:05:19;;;;;;;11.40;7.93;;;;;;;15.16;61.53;101090.17;4984651;58;1140413;-75
2021/04/18 12:10:44;;;;;;;13.50;9.03;;;;;;;15.24;58.50;101100.17;4978573;58;1141174;-78
2021/04/18 12:16:09;;;;;;;9.07;6.80;;;;;;;15.20;58.62;101094.26;4989255;58;1140631;-78
2021/04/18 12:21:35;;;;;;;10.37;7.87;;;;;;;15.26;58.59;101095.55;4982205;58;1138652;-75
2021/04/18 12:27:00;;;;;;;18.37;10.40;;;;;;;15.26;57.30;101093.73;4984093;58;1140601;-78
2021/04/18 12:32:26;;;;;;;23.77;13.27;;;;;;;15.38;57.21;101090.47;4984387;58;1142699;-78
2021/04/18 12:37:51;;;;;;;8.18;6.22;;;;;;;15.31;54.85;101093.30;4988059;57;1142819;-75
2021/04/18 12:43:16;;;;;;;11.17;7.50;;;;;;;15.33;56.62;101093.52;5031686;57;1138582;-78
2021/04/18 12:48:42;;;;;;;15.78;8.88;;;;;;;15.41;55.90;101091.53;5041622;57;1140641;-76
2021/04/18 12:54:08;;;;;;;11.07;7.70;;;;;;;15.43;57.05;101090.39;5050177;57;1141120;-78
2021/04/18 12:59:34;;;;;;;10.43;7.03;;;;;;;15.55;57.73;101078.30;5047800;57;1140642;-78
2021/04/18 13:05:01;;;;;;;13.43;10.53;;;;;;;15.77;56.06;101077.58;5042790;57;1140645;-78
2021/04/18 13:10:27;;;;;;;9.77;5.40;;;;;;;15.79;56.60;101072.11;5050590;57;1142782;-76
2021/04/18 13:15:52;;;;;;;7.46;5.50;;;;;;;15.91;53.25;101070.14;5042396;57;1138690;-76
2021/04/18 13:21:18;;;;;;;10.83;6.00;;;;;;;15.96;54.69;101066.58;5045548;57;1138530;-75
2021/04/18 13:26:44;;;;;;;10.45;8.20;;;;;;;16.03;54.05;101076.56;5049720;57;1140878;-77
2021/04/18 13:32:10;;;;;;;13.37;7.83;;;;;;;16.10;53.56;101072.33;5021636;56;1140662;-76
2021/04/18 13:37:36;;;;;;;34.50;19.33;;;;;;;16.10;52.97;101074.16;5040264;57;1150553;-75
2021/04/18 13:43:01;;;;;;;21.90;14.83;;;;;;;16.11;54.86;101071.35;5016405;57;1142632;-75
2021/04/18 13:48:27;;;;;;;11.63;9.50;;;;;;;16.16;52.26;101074.45;4982941;58;1142717;-76
2021/04/18 13:53:53;;;;;;;6.70;6.08;;;;;;;16.14;52.98;101067.56;5002911;58;1140858;-79
2021/04/18 13:59:18;;;;;;;15.97;8.27;;;;;;;16.20;52.94;101064.31;4987210;58;1138302;-76
2021/04/18 14:04:44;;;;;;;17.67;9.50;;;;;;;16.30;53.25;101064.31;4906647;58;1140638;-75
2021/04/18 14:10:11;;;;;;;8.87;7.20;;;;;;;16.23;52.23;101065.36;4928020;58;1140644;-77
2021/04/18 14:15:36;;;;;;;11.87;7.13;;;;;;;16.02;51.39;101061.53;4991375;58;1146320;-75
2021/04/18 14:21:01;;;;;;;25.17;15.03;;;;;;;15.90;51.88;101069.30;4918974;58;1140655;-78
2021/04/18 14:26:26;;;;;;;15.63;10.50;;;;;;;15.87;53.20;101065.61;4995824;58;1142830;-77
2021/04/18 14:31:53;;;;;;;22.95;14.30;;;;;;;15.89;52.52;101067.61;4996603;58;1142768;-78
2021/04/18 14:37:21;;;;;;;10.47;7.40;;;;;;;16.00;52.13;101060.83;4967241;58;1142757;-76
2021/04/18 14:42:46;;;;;;;10.10;6.53;;;;;;;16.01;52.32;101061.67;4984645;58;1140520;-75
2021/04/18 14:48:11;;;;;;;9.73;6.43;;;;;;;15.88;50.79;101061.12;5004189;58;1140860;-78
2021/04/18 14:53:36;;;;;;;11.40;8.53;;;;;;;15.86;51.33;101067.92;4983727;58;1138850;-76
2021/04/18 14:59:04;;;;;;;10.00;7.13;;;;;;;15.89;52.61;101060.95;4984720;58;1140596;-78
2021/04/18 15:04:28;;;;;;;26.53;15.10;;;;;;;15.93;52.79;101066.36;4996797;58;1140619;-75
2021/04/18 15:09:53;;;;;;;24.52;11.78;;;;;;;15.95;51.34;101064.89;5015938;58;1142679;-77
2021/04/18 15:15:21;;;;;;;12.67;9.53;;;;;;;15.96;52.41;101070.58;4993759;57;1142773;-77
2021/04/18 15:20:46;;;;;;;14.25;9.50;;;;;;;15.92;52.92;101068.67;4955749;58;1140725;-76
2021/04/18 15:26:13;;;;;;;30.00;18.67;;;;;;;15.95;52.52;101071.07;4986455;58;1140592;-77
2021/04/18 15:31:38;;;;;;;37.30;23.53;;;;;;;15.92;52.89;101075.34;4986542;57;1142746;-77
2021/04/18 15:37:04;;;;;;;12.87;10.00;;;;;;;15.91;53.11;101074.14;4988499;58;1142948;-74
2021/04/18 15:42:29;;;;;;;16.20;11.17;;;;;;;15.89;53.07;101071.61;4992627;57;1142899;-76
2021/04/18 15:47:54;;;;;;;18.32;12.68;;;;;;;15.78;51.35;101073.09;4913849;58;1142689;-74
2021/04/18 15:53:20;;;;;;;16.53;12.50;;;;;;;15.74;52.69;101081.85;4918251;59;1142775;-78
2021/04/18 15:58:45;;;;;;;16.93;11.15;;;;;;;15.75;53.59;101070.20;5005560;57;1142706;-76
2021/04/18 16:04:12;;;;;;;22.90;14.53;;;;;;;15.77;53.85;101070.91;5022814;57;1142955;-75
2021/04/18 16:09:37;;;;;;;18.13;11.33;;;;;;;15.82;54.13;101087.35;4918267;59;1142935;-76
2021/04/18 16:15:04;;;;;;;14.00;9.93;;;;;;;15.92;54.43;101077.17;4918482;59;1142642;-76
2021/04/18 16:20:30;;;;;;;17.20;12.30;;;;;;;15.97;53.41;101078.94;4946934;57;1140378;-76
2021/04/18 16:25:55;;;;;;;20.68;10.20;;;;;;;15.89;52.57;101088.14;4995875;57;1142552;-76
2021/04/18 16:31:21;;;;;;;37.80;18.57;;;;;;;15.78;52.88;101089.94;4993982;56;1142791;-75
2021/04/18 16:36:46;;;;;;;74.53;34.45;;;;;;;15.76;53.38;101091.05;4984365;57;1142878;-77
2021/04/18 16:42:12;;;;;;;70.10;32.23;;;;;;;15.72;53.15;101085.17;4992032;57;1142822;-77
2021/04/18 16:47:38;;;;;;;56.00;27.33;;;;;;;15.68;53.90;101097.58;4995206;57;1142717;-78
2021/04/18 16:53:02;;;;;;;31.63;18.37;;;;;;;15.61;53.43;101100.42;5010743;57;1142690;-76
2021/04/18 16:58:27;;;;;;;33.20;19.30;;;;;;;15.57;54.14;101104.37;5017755;57;1142699;-78
2021/04/18 17:03:54;;;;;;;57.10;28.60;;;;;;;15.56;54.86;101114.69;5027115;57;1142931;-78
2021/04/18 17:09:22;;;;;;;39.37;18.73;;;;;;;15.57;54.49;101111.04;5021412;57;1142782;-75
2021/04/18 17:14:46;;;;;;;42.35;24.45;;;;;;;15.53;54.73;101124.25;5000024;57;1142676;-76
2021/04/18 17:20:14;;;;;;;69.33;30.63;;;;;;;15.40;54.85;101129.83;5014878;57;1142665;-76
2021/04/18 17:25:40;;;;;;;57.90;27.90;;;;;;;15.31;54.79;101134.61;5009950;57;1150117;-77
2021/04/18 17:31:05;;;;;;;108.50;45.83;;;;;;;15.25;55.16;101140.50;5024770;57;1142947;-76
2021/04/18 17:36:30;;;;;;;50.67;26.33;;;;;;;15.17;55.33;101136.31;5024243;57;1144817;-75
2021/04/18 17:41:56;;;;;;;76.30;34.60;;;;;;;15.13;55.74;101149.89;5018872;57;1142709;-78
2021/04/18 17:47:21;;;;;;;79.57;36.97;;;;;;;15.12;56.02;101146.05;5025463;57;1142684;-77
2021/04/18 17:52:46;;;;;;;109.50;38.63;;;;;;;15.09;56.12;101152.97;5010874;56;1142743;-75
2021/04/18 17:58:13;;;;;;;81.70;44.40;;;;;;;15.07;56.42;101158.44;5009837;57;1144788;-78
2021/04/18 18:03:37;;;;;;;79.20;37.90;;;;;;;15.03;56.50;101161.48;5019190;57;1142906;-77
2021/04/18 18:09:03;;;;;;;79.27;42.57;;;;;;;15.00;56.58;101162.59;5010658;57;1142659;-77
2021/04/18 18:14:28;;;;;;;40.00;20.10;;;;;;;14.93;56.79;101165.44;5020291;57;1142680;-77
2021/04/18 18:19:54;;;;;;;39.00;21.35;;;;;;;14.87;56.93;101171.27;5026178;57;1142825;-75
2021/04/18 18:25:23;;;;;;;47.90;24.77;;;;;;;14.76;57.37;101177.52;4993516;56;1142425;-74
2021/04/18 18:30:49;;;;;;;55.05;30.00;;;;;;;14.60;58.04;101184.27;5048464;57;1142614;-75
2021/04/18 18:36:15;;;;;;;44.60;25.10;;;;;;;14.39;58.36;101177.05;5032077;57;1142811;-75
2021/04/18 18:41:41;;;;;;;31.63;19.57;;;;;;;14.05;58.58;101188.29;5030865;57;1143012;-72
2021/04/18 18:47:05;;;;;;;35.47;21.23;;;;;;;13.81;59.08;101190.77;5034306;57;1142478;-73
2021/04/18 18:52:36;;;;;;;47.67;24.70;;;;;;;13.72;59.85;101188.38;5024634;57;1142990;-72
2021/04/18 18:58:01;;;;;;;56.90;23.63;;;;;;;13.70;60.42;101195.63;4995471;58;1142645;-74
2021/04/18 19:03:28;;;;;;;56.55;23.47;;;;;;;13.60;60.71;101194.66;4950930;58;1142837;-71
2021/04/18 19:08:54;;;;;;;44.10;22.58;;;;;;;13.43;60.93;101201.81;4996166;58;1143124;-74
2021/04/18 19:14:22;;;;;;;54.55;26.90;;;;;;;13.29;61.22;101198.91;5017787;58;1143152;-74
2021/04/18 19:19:46;;;;;;;69.32;32.10;;;;;;;13.19;61.61;101198.76;4932662;58;1143368;-73
2021/04/18 19:25:14;;;;;;;128.23;59.20;;;;;;;13.07;61.63;101206.33;4983716;58;1142887;-73
2021/04/18 19:30:39;;;;;;;400.00;192.07;;;;;;;12.96;62.05;101208.97;4984383;58;1144750;-71
2021/04/18 19:36:12;;;;;;;242.87;107.07;;;;;;;12.95;62.17;101205.46;4983775;58;1146626;-73
2021/04/18 19:41:37;;;;;;;245.33;120.57;;;;;;;12.85;61.92;101212.41;4936309;58;1146981;-74
2021/04/18 19:47:02;;;;;;;77.43;40.13;;;;;;;12.65;61.88;101219.73;4906836;58;1146818;-72
2021/04/18 19:52:28;;;;;;;66.77;33.33;;;;;;;12.31;62.46;101217.41;4913047;58;1142893;-71
2021/04/18 19:57:55;;;;;;;54.48;31.27;;;;;;;12.16;62.93;101214.08;4939240;58;1142665;-74
2021/04/18 20:03:21;;;;;;;66.20;36.57;;;;;;;12.26;63.58;101216.89;4934914;59;1143168;-72
2021/04/18 20:08:46;;;;;;;51.35;30.68;;;;;;;12.35;63.99;101222.02;4933239;59;1142823;-72
2021/04/18 20:14:11;;;;;;;63.57;33.43;;;;;;;12.27;64.00;101223.89;4814151;60;1142686;-72
2021/04/18 20:19:37;;;;;;;63.20;30.90;;;;;;;12.14;63.76;101215.14;4935008;58;1142571;-74
2021/04/18 20:25:03;;;;;;;53.23;26.93;;;;;;;11.83;63.76;101213.86;4845034;60;1142537;-72
2021/04/18 20:30:28;;;;;;;51.67;29.63;;;;;;;11.62;64.56;101222.34;4845184;60;1143056;-72
2021/04/18 20:35:54;;;;;;;42.58;26.30;;;;;;;11.70;65.25;101219.64;4845207;60;1143279;-72
2021/04/18 20:41:19;;;;;;;46.17;27.53;;;;;;;11.70;64.99;101216.98;4845180;60;1142753;-71
2021/04/18 20:46:44;;;;;;;66.10;32.00;;;;;;;11.68;65.22;101222.88;4844486;60;1152080;-71
2021/04/18 20:52:11;;;;;;;59.97;28.70;;;;;;;11.57;64.86;101213.05;4845231;60;1142640;-70
2021/04/18 20:57:37;;;;;;;78.10;38.97;;;;;;;11.40;65.11;101216.03;4853645;60;1142851;-72
2021/04/18 21:03:01;;;;;;;105.83;51.23;;;;;;;11.33;65.64;101218.23;4854772;59;1142882;-69
2021/04/18 21:08:26;;;;;;;72.40;33.50;;;;;;;11.42;66.18;101216.30;4878138;59;1144850;-70
2021/04/18 21:13:51;;;;;;;42.75;21.25;;;;;;;11.40;65.90;101215.55;4863575;59;1142875;-71
2021/04/18 21:19:17;;;;;;;43.63;20.63;;;;;;;11.21;65.77;101218.62;4937384;58;1142672;-70
2021/04/18 21:24:43;;;;;;;51.20;25.50;;;;;;;11.14;66.33;101216.52;4937539;58;1143024;-70
2021/04/18 21:30:10;;;;;;;67.67;32.40;;;;;;;11.12;66.59;101217.09;4937135;58;1142704;-71
2021/04/18 21:35:36;;;;;;;83.87;36.10;;;;;;;11.14;66.74;101216.05;4937175;58;1142929;-70
2021/04/18 21:41:00;;;;;;;39.93;21.93;;;;;;;11.12;66.69;101219.27;4937308;58;1142995;-72
2021/04/18 21:46:26;;;;;;;41.03;22.33;;;;;;;11.07;66.75;101216.08;4937074;58;1142632;-71
2021/04/18 21:51:51;;;;;;;32.28;20.60;;;;;;;10.86;66.75;101219.70;4937408;58;1142951;-70
2021/04/18 21:57:17;;;;;;;36.97;21.97;;;;;;;10.59;67.14;101220.23;4919287;58;1143324;-70
2021/04/18 22:02:41;;;;;;;55.13;30.33;;;;;;;10.51;67.71;101219.91;4898178;58;1142569;-71
2021/04/18 22:08:07;;;;;;;45.17;23.87;;;;;;;10.57;68.44;101221.66;4898065;58;1142553;-70
2021/04/18 22:13:32;;;;;;;42.07;21.07;;;;;;;10.51;68.22;101216.79;4897966;59;1142656;-70
2021/04/18 22:18:58;;;;;;;42.67;22.65;;;;;;;10.47;68.28;101216.61;4899147;58;1143130;-72
2021/04/18 22:24:23;;;;;;;41.13;23.13;;;;;;;10.54;68.86;101217.06;4898615;59;1143041;-72
2021/04/18 22:29:49;;;;;;;38.70;22.05;;;;;;;10.73;69.26;101211.38;4898694;58;1142777;-72
2021/04/18 22:35:15;;;;;;;42.97;24.47;;;;;;;10.69;68.84;101206.78;4898480;58;1142773;-70
2021/04/18 22:40:40;;;;;;;37.57;20.70;;;;;;;10.43;68.91;101205.85;4898638;59;1142684;-71
2021/04/18 22:46:05;;;;;;;45.50;24.53;;;;;;;10.15;69.17;101205.46;4898368;59;1142671;-73
2021/04/18 22:51:30;;;;;;;51.50;27.80;;;;;;;9.98;69.51;101195.59;4898694;58;1142644;-70
2021/04/18 22:56:56;;;;;;;50.88;26.97;;;;;;;9.96;70.02;101181.16;4898515;59;1140688;-70
2021/04/18 23:02:22;;;;;;;52.10;27.60;;;;;;;9.96;70.42;101173.70;4895746;59;1140596;-71
2021/04/18 23:07:47;;;;;;;47.98;28.80;;;;;;;9.89;70.55;101171.95;4895764;59;1140820;-70
2021/04/18 23:13:12;;;;;;;49.70;28.40;;;;;;;9.93;70.89;101167.33;4895733;59;1140744;-73
2021/04/18 23:18:38;;;;;;;53.08;29.45;;;;;;;9.89;70.93;101165.34;4895436;58;1140778;-72
2021/04/18 23:24:03;;;;;;;53.93;29.87;;;;;;;10.04;71.41;101162.19;4895753;58;1140844;-72
2021/04/18 23:29:29;;;;;;;63.07;34.53;;;;;;;10.08;70.95;101163.69;4895533;59;1142645;-72
2021/04/18 23:34:55;;;;;;;44.55;25.45;;;;;;;10.10;70.98;101149.88;4895652;59;1142701;-70
2021/04/18 23:40:20;;;;;;;56.93;29.53;;;;;;;9.97;70.76;101144.55;4895428;59;1143007;-71
2021/04/18 23:45:45;;;;;;;51.37;27.93;;;;;;;9.78;70.85;101144.03;4895885;59;1149466;-71
2021/04/18 23:51:10;;;;;;;53.60;27.33;;;;;;;9.69;71.04;101130.95;4895702;59;1140331;-73
2021/04/18 23:56:36;;;;;;;124.53;49.00;;;;;;;9.73;71.33;101139.53;4895581;59;1140410;-70
